Flugplatz Mühldorf (EDMY)

Hier findest Du alle Informationen zum Flugplatz Mühldorf (EDMY).

Informationen für Piloten zum Flugplatz Mühldorf

Hier findest Du alle relevanten Informationen, die Du als Pilot benötigst, um Mühldorf anzufliegen.

Flugplatz: Mühldorf ICAO-Code: EDMY
Frequenz Turm: 119,775 Mhz GAFOR Gebiet: 74
Frequenz Ground: 119,775 Mhz Mogas: ja
Platzrunde: N 2500 ft Landegebühr: -
Platzhöhe: - Sunrise: 03:43 Uhr UTC
Pisten: 08/26 - 773 m x 20 m, ASPH Sunset: 18:48 Uhr UTC

Flugwetter am Flugplatz Mühldorf

Die METAR Information stammen aus EDDM (53.71 km entfernt).

METAR Code:
2021/07/18 06:50
EDDM 180650Z 36005KT 310V030 9999 SCT020 BKN038 18/15 Q1019 NOSIG

Temperatur: 18,1 °C Niederschlag: - Wind: 2,0 kt (max.: 2,1 kt in Böen)
Temperatur (min.): 17,1 °C Luftdruck: 1008 hPa Windrichtung: 37 °
Temperatur (max.): 18,7 °C Luftfeuchtigkeit: 56 % Bewölkung: 8/8

Flugschulen am Flugplatz Mühldorf

Am Flugplatz Mühldorf gibt es 3 Flugschulen.

Benachbarte Flugplätze und Flugschulen

Es gibt 15 weitere Flugplätze in einem Umkreis von 50 km um den Flugplatz Mühldorf.

Jetzt anmelden

Passwort vergessen

Umfrage Archiv

Seid Ihr aufgrund von Corona im Jahr 2020 mehr oder weniger geflogen als im Jahr zuvor?

weniger
56.7 %
gleich viel
26.2 %
mehr
17 %
Stimmen: 282 | Diskussion
Anzeige: Roland Aircraft
Statistik Alle Mitglieder

Aktuell sind 53 Besucher online.

Anzeige: VFR Sprechfunk Simulator Anzeige: Pocket FMS